Time;durP1;ratioP1;P1;durP2;ratioP2;P2;SDS_P1;SDS_P2;PMS_P1;PMS_P2;Temp;Humidity;BMP_temperature;BMP_pressure;BME280_temperature;BME280_humidity;BME280_pressure;Samples;Min_cycle;Max_cycle;Signal;HPM_P1;HPM_P2
2022/04/27 00:04:16;;;;;;;9.80;8.80;;;8.20;99.90;;;;;;2615576;54;20447;-75
2022/04/27 00:10:23;;;;;;;10.17;9.20;;;8.30;99.90;;;;;;2614459;54;20210;-75
2022/04/27 00:16:30;;;;;;;11.33;8.60;;;8.20;99.90;;;;;;2615949;54;20430;-79
2022/04/27 00:22:37;;;;;;;12.30;8.70;;;8.10;99.90;;;;;;2615405;54;20418;-74
2022/04/27 00:28:44;;;;;;;11.47;8.60;;;8.40;99.90;;;;;;2615487;54;20509;-76
2022/04/27 00:34:51;;;;;;;9.40;8.40;;;8.60;99.90;;;;;;2615099;54;20686;-75
2022/04/27 00:40:58;;;;;;;15.70;9.57;;;8.60;99.90;;;;;;2616191;54;20416;-74
2022/04/27 01:01:34;;;;;;;10.70;8.47;;;8.50;99.90;;;;;;2614251;54;20391;-77
2022/04/27 01:07:41;;;;;;;10.60;7.90;;;8.40;99.90;;;;;;2613896;54;20416;-76
2022/04/27 01:13:47;;;;;;;12.03;7.67;;;8.30;99.90;;;;;;2614236;54;20489;-76
2022/04/27 01:19:54;;;;;;;8.30;7.10;;;8.40;99.90;;;;;;2614352;54;20491;-80
2022/04/27 01:26:05;;;;;;;12.20;8.10;;;8.50;99.90;;;;;;2614136;54;20444;-76
2022/04/27 01:32:11;;;;;;;9.40;7.17;;;8.40;99.90;;;;;;2614628;54;20959;-77
2022/04/27 01:38:19;;;;;;;10.63;8.70;;;8.30;99.90;;;;;;2615106;54;20490;-77
2022/04/27 01:44:27;;;;;;;18.57;9.50;;;8.20;99.90;;;;;;2615895;54;20978;-77
2022/04/27 01:58:27;;;;;;;9.60;8.70;;;8.00;99.90;;;;;;2613543;54;20440;-77
2022/04/27 02:07:57;;;;;;;12.53;9.50;;;7.70;99.90;;;;;;2613019;54;20436;-77
2022/04/27 02:14:05;;;;;;;14.50;8.50;;;7.80;99.90;;;;;;2613432;54;20436;-82
2022/04/27 02:27:16;;;;;;;15.20;7.93;;;7.30;99.90;;;;;;2615722;47;20428;-78
2022/04/27 02:33:04;;;;;;;16.90;10.63;;;7.20;99.90;;;;;;2615708;54;20174;-81
2022/04/27 02:43:16;;;;;;;10.23;9.23;;;7.00;99.90;;;;;;2614687;54;20482;-81
2022/04/27 02:55:49;;;;;;;10.80;9.70;;;6.80;99.90;;;;;;2615648;54;20389;-80
2022/04/27 03:01:55;;;;;;;11.00;9.80;;;6.70;99.90;;;;;;2614892;54;20436;-80
2022/04/27 03:08:02;;;;;;;12.33;9.60;;;6.60;99.90;;;;;;2615759;39;20824;-81
2022/04/27 03:14:11;;;;;;;12.63;9.33;;;6.50;99.90;;;;;;2615586;54;20484;-77
2022/04/27 03:20:18;;;;;;;13.13;9.50;;;6.50;99.90;;;;;;2615742;54;20406;-81
2022/04/27 03:26:25;;;;;;;11.13;9.30;;;6.50;99.90;;;;;;2615699;54;20236;-80
2022/04/27 03:32:32;;;;;;;14.90;10.33;;;6.60;99.90;;;;;;2616886;54;20446;-81
2022/04/27 03:38:43;;;;;;;12.03;10.13;;;6.80;99.90;;;;;;2615702;54;20391;-81
2022/04/27 03:48:31;;;;;;;19.37;10.50;;;6.80;99.90;;;;;;2615743;54;20396;-79
2022/04/27 03:54:38;;;;;;;15.20;10.00;;;6.80;99.90;;;;;;2616287;54;20675;-81
2022/04/27 04:00:45;;;;;;;17.27;9.70;;;6.70;99.90;;;;;;2614893;54;20411;-79
2022/04/27 04:06:59;;;;;;;15.63;10.23;;;6.50;99.90;;;;;;2616675;39;20804;-80
2022/04/27 04:13:09;;;;;;;11.80;9.87;;;6.30;99.90;;;;;;2617606;31;20797;-81
2022/04/27 04:19:34;;;;;;;16.43;10.70;;;6.20;99.90;;;;;;2616733;54;20393;-80
2022/04/27 04:36:15;;;;;;;16.43;13.70;;;6.20;99.90;;;;;;2615473;47;20524;-81
2022/04/27 05:00:56;;;;;;;18.37;12.07;;;6.40;99.90;;;;;;2614459;54;20920;-78
2022/04/27 05:40:16;;;;;;;14.87;13.20;;;8.20;99.90;;;;;;2613610;54;20423;-79
2022/04/27 05:50:24;;;;;;;17.20;11.57;;;9.40;99.90;;;;;;2613311;54;20386;-79
2022/04/27 05:56:52;;;;;;;20.03;11.83;;;10.40;99.90;;;;;;2613814;54;20440;-80
2022/04/27 06:03:35;;;;;;;12.57;11.27;;;10.90;99.90;;;;;;2612410;54;20457;-79
2022/04/27 06:09:45;;;;;;;16.10;12.63;;;11.10;99.90;;;;;;2608346;54;20444;-81
2022/04/27 06:16:14;;;;;;;13.73;12.00;;;11.30;99.90;;;;;;2613121;54;20515;-80
2022/04/27 06:26:11;;;;;;;16.00;12.20;;;12.00;94.90;;;;;;2615029;54;20419;-78
2022/04/27 06:50:49;;;;;;;10.80;9.80;;;13.40;73.30;;;;;;2614700;46;20398;-81
2022/04/27 07:00:41;;;;;;;13.30;10.77;;;13.90;63.60;;;;;;2614237;54;20423;-80
2022/04/27 07:06:30;;;;;;;28.53;10.40;;;14.10;53.80;;;;;;2613740;54;20435;-77
2022/04/27 07:12:17;;;;;;;11.17;8.90;;;14.20;54.70;;;;;;2615402;54;20699;-79
2022/04/27 07:18:05;;;;;;;11.87;9.37;;;14.70;47.40;;;;;;2615899;54;20186;-79
2022/04/27 07:27:37;;;;;;;10.33;9.20;;;15.10;42.40;;;;;;2614954;54;20945;-79
2022/04/27 07:33:44;;;;;;;10.73;8.97;;;15.60;36.70;;;;;;2616350;54;20412;-81
2022/04/27 07:39:51;;;;;;;9.90;9.00;;;15.60;33.60;;;;;;2616179;54;20150;-81
2022/04/27 07:50:27;;;;;;;8.70;7.80;;;16.30;24.00;;;;;;2618230;39;20902;-80
2022/04/27 07:56:34;;;;;;;8.20;7.40;;;16.20;21.30;;;;;;2615699;54;20404;-83
2022/04/27 08:06:09;;;;;;;8.27;7.43;;;17.10;12.10;;;;;;2615829;54;20419;-80
2022/04/27 08:11:57;;;;;;;8.63;7.73;;;17.10;8.10;;;;;;2615434;54;20154;-81
2022/04/27 08:18:06;;;;;;;8.50;7.60;;;17.60;5.20;;;;;;2615471;54;20160;-83
2022/04/27 08:23:54;;;;;;;12.83;8.60;;;17.90;5.70;;;;;;2615810;54;20417;-81
2022/04/27 08:30:01;;;;;;;9.13;7.30;;;17.40;5.30;;;;;;2615546;54;20451;-77
2022/04/27 08:35:49;;;;;;;8.33;7.60;;;17.80;1.20;;;;;;2615369;54;20390;-80
2022/04/27 08:41:38;;;;;;;11.27;8.97;;;17.90;1.00;;;;;;2616417;54;20397;-80
2022/04/27 08:47:29;;;;;;;9.57;8.50;;;18.30;1.00;;;;;;2614582;54;20942;-79
2022/04/27 08:50:14;;;;;;;9.60;8.70;;;18.50;1.00;;;;;;2614742;54;20557;-81
2022/04/27 08:52:41;;;;;;;9.60;8.67;;;18.60;1.00;;;;;;2616819;54;20397;-80
2022/04/27 08:58:29;;;;;;;11.60;9.43;;;18.20;1.00;;;;;;2617037;54;21003;-82
2022/04/27 09:04:18;;;;;;;11.50;8.90;;;18.30;1.00;;;;;;2617463;31;20832;-79
2022/04/27 09:10:08;;;;;;;18.07;9.40;;;18.80;1.00;;;;;;2615783;46;20496;-81
2022/04/27 09:16:02;;;;;;;13.43;8.10;;;18.60;1.00;;;;;;2615250;47;20415;-81
2022/04/27 09:21:52;;;;;;;8.90;8.10;;;18.80;1.00;;;;;;2615632;54;20143;-81
2022/04/27 09:27:41;;;;;;;7.47;6.87;;;18.90;1.00;;;;;;2616425;52;20415;-81
2022/04/27 09:33:33;;;;;;;10.77;7.50;;;19.00;1.00;;;;;;2617372;54;20415;-82
2022/04/27 09:57:33;;;;;;;9.77;8.37;;;19.20;1.00;;;;;;2617713;39;20898;-79
2022/04/27 10:03:21;;;;;;;9.33;8.50;;;19.90;1.00;;;;;;2615744;54;20781;-81
2022/04/27 10:09:09;;;;;;;9.80;8.90;;;19.70;1.00;;;;;;2618032;39;20761;-82
2022/04/27 10:18:37;;;;;;;10.00;8.37;;;20.30;1.00;;;;;;2617351;54;20436;-82
2022/04/27 10:24:46;;;;;;;9.90;9.17;;;20.30;1.00;;;;;;2616552;54;20390;-82
2022/04/27 10:30:52;;;;;;;9.90;8.83;;;20.30;1.00;;;;;;2618427;54;20442;-83
2022/04/27 10:37:01;;;;;;;9.87;8.87;;;19.30;1.00;;;;;;2617087;54;20148;-81
2022/04/27 10:43:08;;;;;;;10.87;8.60;;;19.30;1.00;;;;;;2617911;54;20442;-79
2022/04/27 10:49:28;;;;;;;9.47;8.60;;;20.50;1.00;;;;;;2618645;39;20566;-82
2022/04/27 10:55:38;;;;;;;11.00;9.53;;;21.20;1.00;;;;;;2616523;54;20423;-84
2022/04/27 11:01:54;;;;;;;12.60;10.00;;;21.50;1.00;;;;;;2617569;39;20770;-79
2022/04/27 11:29:13;;;;;;;10.80;9.97;;;21.00;1.00;;;;;;2616196;54;20556;-79
2022/04/27 11:35:23;;;;;;;12.60;11.43;;;20.60;1.00;;;;;;2616473;54;20418;-80
2022/04/27 11:41:36;;;;;;;12.70;10.20;;;20.40;1.00;;;;;;2615362;54;20426;-82
2022/04/27 11:47:42;;;;;;;19.20;12.97;;;21.00;1.00;;;;;;2616278;54;20430;-82
2022/04/27 11:53:49;;;;;;;11.70;10.60;;;20.80;1.00;;;;;;2616374;39;21178;-82
2022/04/27 11:59:57;;;;;;;11.90;10.70;;;21.10;1.00;;;;;;2618076;54;20479;-81
2022/04/27 12:03:04;;;;;;;12.67;11.57;;;21.00;1.00;;;;;;2615549;54;20507;-81
2022/04/27 12:08:52;;;;;;;12.43;11.33;;;21.10;1.00;;;;;;2616711;39;20429;-80
2022/04/27 12:14:41;;;;;;;12.60;11.50;;;20.50;1.00;;;;;;2617866;39;20553;-80
2022/04/27 12:38:11;;;;;;;12.50;11.33;;;20.40;1.00;;;;;;2616919;54;20489;-83
2022/04/27 12:58:36;;;;;;;13.47;12.13;;;21.40;1.00;;;;;;2616524;54;20441;-78
2022/04/27 13:01:03;;;;;;;13.50;12.50;;;21.30;1.00;;;;;;2617208;47;20428;-81
2022/04/27 13:25:29;;;;;;;13.10;11.80;;;21.40;1.00;;;;;;2617600;54;20410;-82
2022/04/27 13:31:36;;;;;;;14.53;13.23;;;20.70;1.00;;;;;;2615523;54;20542;-77
2022/04/27 13:37:44;;;;;;;14.67;13.47;;;20.90;1.00;;;;;;2617802;39;20815;-82
2022/04/27 13:47:12;;;;;;;14.77;13.47;;;21.50;1.00;;;;;;2616987;54;20431;-79
2022/04/27 14:03:54;;;;;;;15.27;13.97;;;20.60;1.00;;;;;;2616046;39;20832;-80
2022/04/27 14:13:30;;;;;;;14.23;12.80;;;20.60;1.00;;;;;;2616420;47;20425;-77
2022/04/27 14:19:18;;;;;;;15.77;14.23;;;19.90;1.00;;;;;;2616422;54;20452;-81
2022/04/27 14:25:06;;;;;;;16.03;12.60;;;19.10;1.00;;;;;;2617187;54;20559;-83
2022/04/27 14:30:54;;;;;;;14.37;13.07;;;20.00;1.00;;;;;;2616820;54;20438;-81
2022/04/27 14:36:41;;;;;;;13.97;12.77;;;20.30;1.00;;;;;;2616734;54;20399;-80
2022/04/27 14:42:32;;;;;;;18.30;13.50;;;19.90;1.00;;;;;;2615275;54;20165;-81
2022/04/27 14:48:19;;;;;;;15.60;14.20;;;19.40;1.00;;;;;;2615676;47;20422;-81
2022/04/27 14:54:08;;;;;;;14.00;12.90;;;18.90;1.00;;;;;;2614107;54;20173;-80
2022/04/27 14:59:57;;;;;;;16.00;14.60;;;19.40;1.00;;;;;;2615348;54;20393;-79
2022/04/27 15:09:45;;;;;;;14.70;13.37;;;20.00;1.00;;;;;;2615412;54;20463;-81
2022/04/27 15:15:33;;;;;;;13.90;12.70;;;20.60;1.00;;;;;;2615990;54;20158;-81
2022/04/27 15:27:47;;;;;;;30.67;28.57;;;20.70;1.00;;;;;;2616214;54;20442;-82
2022/04/27 15:33:35;;;;;;;13.87;12.50;;;20.90;1.00;;;;;;2617374;54;20434;-81
2022/04/27 15:39:23;;;;;;;20.47;18.83;;;20.60;1.00;;;;;;2616303;54;20153;-80
2022/04/27 15:45:12;;;;;;;37.73;34.63;;;20.50;1.00;;;;;;2616143;47;20172;-81
2022/04/27 15:51:04;;;;;;;21.37;19.40;;;19.30;1.00;;;;;;2616419;39;20678;-81
2022/04/27 15:56:53;;;;;;;37.47;33.43;;;19.00;1.00;;;;;;2614972;54;20425;-80
2022/04/27 16:02:41;;;;;;;28.83;26.10;;;19.10;1.00;;;;;;2612233;47;20978;-79
2022/04/27 16:05:07;;;;;;;25.60;22.77;;;18.70;1.00;;;;;;2614124;39;20802;-80
2022/04/27 16:07:35;;;;;;;472.97;418.43;;;18.70;1.00;;;;;;2612954;54;20414;-81
2022/04/27 16:24:13;;;;;;;21.80;19.60;;;18.00;1.00;;;;;;2612909;39;20841;-79
2022/04/27 16:33:42;;;;;;;14.00;12.80;;;17.50;1.00;;;;;;2615223;54;20572;-82
2022/04/27 16:39:33;;;;;;;14.77;13.43;;;17.90;1.00;;;;;;2614708;54;20463;-80
2022/04/27 16:45:20;;;;;;;12.90;11.70;;;17.70;1.00;;;;;;2615556;39;20910;-82
2022/04/27 16:51:08;;;;;;;13.60;12.13;;;17.70;1.00;;;;;;2615536;54;20419;-83
2022/04/27 17:07:03;;;;;;;16.77;13.10;;;18.00;1.00;;;;;;2617314;54;20491;-80
2022/04/27 17:20:39;;;;;;;11.50;10.50;;;17.30;1.00;;;;;;2614046;54;20407;-80
2022/04/27 17:30:09;;;;;;;12.50;11.20;;;16.70;1.00;;;;;;2613893;54;20428;-83
2022/04/27 17:35:57;;;;;;;16.27;11.60;;;16.50;1.00;;;;;;2613691;54;20424;-80
2022/04/27 17:41:45;;;;;;;12.40;9.80;;;16.60;1.00;;;;;;2614275;54;20396;-81
2022/04/27 18:16:36;;;;;;;10.70;9.57;;;15.40;1.00;;;;;;2615308;54;20418;-79
2022/04/27 18:22:44;;;;;;;9.87;8.87;;;15.20;1.00;;;;;;2609700;54;20527;-77
2022/04/27 18:28:51;;;;;;;9.97;8.73;;;15.20;1.00;;;;;;2610738;54;20445;-79
2022/04/27 18:34:58;;;;;;;12.40;9.30;;;14.90;1.10;;;;;;2612885;54;20414;-81
2022/04/27 18:41:05;;;;;;;9.83;8.83;;;14.70;1.30;;;;;;2617771;54;20402;-82
2022/04/27 18:53:38;;;;;;;10.60;9.53;;;14.30;2.50;;;;;;2614268;54;20446;-80
2022/04/27 18:59:45;;;;;;;11.43;9.10;;;14.20;4.00;;;;;;2614644;54;20174;-82
2022/04/27 19:10:14;;;;;;;10.83;9.73;;;13.80;8.30;;;;;;2615179;54;20386;-81
2022/04/27 19:16:20;;;;;;;7.57;6.87;;;13.40;8.10;;;;;;2615050;54;20440;-78
2022/04/27 19:22:27;;;;;;;13.23;7.27;;;13.30;8.60;;;;;;2615471;54;20234;-80
2022/04/27 19:28:33;;;;;;;7.10;6.40;;;13.10;8.50;;;;;;2615750;54;20283;-78
2022/04/27 19:34:41;;;;;;;7.73;6.33;;;13.00;9.30;;;;;;2617409;39;20481;-79
2022/04/27 19:40:48;;;;;;;9.07;6.40;;;13.00;10.00;;;;;;2617196;47;21062;-81
2022/04/27 19:46:55;;;;;;;13.53;6.00;;;12.70;10.20;;;;;;2615289;54;20419;-80
2022/04/27 19:53:04;;;;;;;6.03;5.20;;;12.60;10.50;;;;;;2614342;54;20402;-81
2022/04/27 19:59:19;;;;;;;6.80;5.87;;;12.30;11.50;;;;;;2614527;47;20388;-76
2022/04/27 20:05:28;;;;;;;9.93;6.00;;;12.30;11.70;;;;;;2614457;54;20434;-81
2022/04/27 20:11:36;;;;;;;7.37;6.67;;;12.20;13.30;;;;;;2611584;54;20461;-82
2022/04/27 20:24:56;;;;;;;8.70;6.20;;;11.90;17.10;;;;;;2613192;54;21041;-78
2022/04/27 20:31:03;;;;;;;6.23;5.63;;;11.80;16.60;;;;;;2614528;54;20175;-79
2022/04/27 20:37:09;;;;;;;11.67;5.87;;;11.60;18.00;;;;;;2615306;54;21050;-81
2022/04/27 20:43:16;;;;;;;7.70;6.70;;;11.60;18.10;;;;;;2615117;54;20962;-77
2022/04/27 20:49:23;;;;;;;7.70;6.70;;;11.40;19.60;;;;;;2614273;54;20382;-81
2022/04/27 20:55:29;;;;;;;7.43;5.77;;;11.30;21.20;;;;;;2617082;54;20711;-82
2022/04/27 21:01:36;;;;;;;7.60;6.53;;;11.10;22.80;;;;;;2615843;54;20448;-79
2022/04/27 21:07:43;;;;;;;12.17;7.60;;;11.00;25.50;;;;;;2616416;54;20413;-81
2022/04/27 21:17:31;;;;;;;7.17;6.30;;;10.90;26.30;;;;;;2615732;54;20464;-79
2022/04/27 21:23:38;;;;;;;10.03;6.33;;;10.80;29.20;;;;;;2616829;54;20198;-80
2022/04/27 21:29:45;;;;;;;7.43;6.73;;;10.70;31.70;;;;;;2616743;54;20189;-80
2022/04/27 21:35:52;;;;;;;7.33;6.73;;;10.60;35.10;;;;;;2616550;46;20158;-82
2022/04/27 21:41:59;;;;;;;9.30;5.83;;;10.40;45.40;;;;;;2616334;54;20150;-76
2022/04/27 21:48:06;;;;;;;7.07;6.37;;;10.20;45.70;;;;;;2616194;54;20445;-80
2022/04/27 21:54:13;;;;;;;7.90;5.27;;;10.00;52.50;;;;;;2615654;54;20410;-79
2022/04/27 22:14:39;;;;;;;8.43;6.50;;;9.90;47.50;;;;;;2613505;54;20465;-81
2022/04/27 22:35:14;;;;;;;8.67;6.67;;;9.70;48.90;;;;;;2615619;54;20424;-78
2022/04/27 22:41:22;;;;;;;9.70;6.77;;;9.60;49.70;;;;;;2610925;54;20631;-79
2022/04/27 22:47:28;;;;;;;11.93;6.90;;;9.60;49.00;;;;;;2615314;54;20978;-80
2022/04/27 22:53:35;;;;;;;10.00;7.57;;;9.60;51.00;;;;;;2616175;54;20192;-80
2022/04/27 22:59:41;;;;;;;15.63;7.20;;;9.40;54.90;;;;;;2615807;54;20425;-80
2022/04/27 23:05:49;;;;;;;9.67;7.23;;;9.30;57.70;;;;;;2616183;54;20178;-80
2022/04/27 23:11:56;;;;;;;13.37;7.70;;;9.30;60.00;;;;;;2617258;54;20990;-80
2022/04/27 23:18:04;;;;;;;17.10;8.30;;;9.30;60.60;;;;;;2618013;39;20552;-78
2022/04/27 23:27:49;;;;;;;8.53;7.63;;;9.00;68.70;;;;;;2616184;54;20491;-79
2022/04/27 23:33:37;;;;;;;11.50;8.20;;;8.90;71.70;;;;;;2615060;54;20292;-79
2022/04/27 23:39:24;;;;;;;8.20;7.20;;;8.90;75.70;;;;;;2614874;54;20426;-80
2022/04/27 23:45:12;;;;;;;12.30;8.07;;;8.80;79.40;;;;;;2615053;47;20165;-77
2022/04/27 23:54:43;;;;;;;11.13;8.70;;;8.60;87.10;;;;;;2614811;54;20425;-79
